sensor_id;sensor_type;location;lat;lon;timestamp;P1;durP1;ratioP1;P2;durP2;ratioP2
44078;SDS011;29744;49.078;12.878;2023-02-17T00:00:09;2.70;;;1.70;;
44078;SDS011;29744;49.078;12.878;2023-02-17T00:05:10;2.80;;;1.70;;
44078;SDS011;29744;49.078;12.878;2023-02-17T00:10:10;2.80;;;1.58;;
44078;SDS011;29744;49.078;12.878;2023-02-17T00:15:10;3.03;;;1.70;;
44078;SDS011;29744;49.078;12.878;2023-02-17T00:20:11;2.88;;;1.67;;
44078;SDS011;29744;49.078;12.878;2023-02-17T00:25:11;2.65;;;1.63;;
44078;SDS011;29744;49.078;12.878;2023-02-17T00:30:11;2.78;;;1.67;;
44078;SDS011;29744;49.078;12.878;2023-02-17T00:35:15;2.97;;;1.80;;
44078;SDS011;29744;49.078;12.878;2023-02-17T00:40:15;2.83;;;1.75;;
44078;SDS011;29744;49.078;12.878;2023-02-17T00:45:16;2.90;;;1.73;;
44078;SDS011;29744;49.078;12.878;2023-02-17T00:50:16;3.33;;;1.80;;
44078;SDS011;29744;49.078;12.878;2023-02-17T00:55:16;2.53;;;1.45;;
44078;SDS011;29744;49.078;12.878;2023-02-17T01:00:17;3.10;;;1.50;;
44078;SDS011;29744;49.078;12.878;2023-02-17T01:05:17;2.67;;;1.58;;
44078;SDS011;29744;49.078;12.878;2023-02-17T01:10:18;2.33;;;1.25;;
44078;SDS011;29744;49.078;12.878;2023-02-17T01:15:18;2.95;;;1.50;;
44078;SDS011;29744;49.078;12.878;2023-02-17T01:20:19;2.10;;;1.33;;
44078;SDS011;29744;49.078;12.878;2023-02-17T01:25:19;2.22;;;1.35;;
44078;SDS011;29744;49.078;12.878;2023-02-17T01:30:19;2.60;;;1.50;;
44078;SDS011;29744;49.078;12.878;2023-02-17T01:35:19;2.03;;;1.30;;
44078;SDS011;29744;49.078;12.878;2023-02-17T01:40:20;2.25;;;1.50;;
44078;SDS011;29744;49.078;12.878;2023-02-17T01:50:21;2.72;;;1.30;;
44078;SDS011;29744;49.078;12.878;2023-02-17T01:55:25;2.67;;;1.45;;
44078;SDS011;29744;49.078;12.878;2023-02-17T02:00:26;2.03;;;1.40;;
44078;SDS011;29744;49.078;12.878;2023-02-17T02:05:28;2.28;;;1.23;;
44078;SDS011;29744;49.078;12.878;2023-02-17T02:10:29;2.72;;;1.63;;
44078;SDS011;29744;49.078;12.878;2023-02-17T02:15:32;2.80;;;1.60;;
44078;SDS011;29744;49.078;12.878;2023-02-17T02:21:01;2.38;;;1.48;;
44078;SDS011;29744;49.078;12.878;2023-02-17T02:26:17;2.25;;;1.30;;
44078;SDS011;29744;49.078;12.878;2023-02-17T02:36:55;2.67;;;1.40;;
44078;SDS011;29744;49.078;12.878;2023-02-17T02:42:03;2.38;;;1.40;;
44078;SDS011;29744;49.078;12.878;2023-02-17T02:52:35;2.40;;;1.35;;
44078;SDS011;29744;49.078;12.878;2023-02-17T03:08:42;2.30;;;1.50;;
44078;SDS011;29744;49.078;12.878;2023-02-17T03:13:47;2.42;;;1.30;;
44078;SDS011;29744;49.078;12.878;2023-02-17T03:18:47;1.90;;;1.10;;
44078;SDS011;29744;49.078;12.878;2023-02-17T03:23:48;1.80;;;1.20;;
44078;SDS011;29744;49.078;12.878;2023-02-17T03:28:48;2.13;;;1.35;;
44078;SDS011;29744;49.078;12.878;2023-02-17T03:33:48;2.22;;;1.40;;
44078;SDS011;29744;49.078;12.878;2023-02-17T03:38:49;2.00;;;1.17;;
44078;SDS011;29744;49.078;12.878;2023-02-17T03:43:49;2.13;;;1.23;;
44078;SDS011;29744;49.078;12.878;2023-02-17T03:48:50;2.55;;;1.50;;
44078;SDS011;29744;49.078;12.878;2023-02-17T03:53:50;2.78;;;1.60;;
44078;SDS011;29744;49.078;12.878;2023-02-17T03:58:51;1.73;;;1.10;;
44078;SDS011;29744;49.078;12.878;2023-02-17T04:03:51;2.28;;;1.35;;
44078;SDS011;29744;49.078;12.878;2023-02-17T04:08:52;2.08;;;1.08;;
44078;SDS011;29744;49.078;12.878;2023-02-17T04:13:52;2.30;;;1.20;;
44078;SDS011;29744;49.078;12.878;2023-02-17T04:18:52;1.75;;;1.13;;
44078;SDS011;29744;49.078;12.878;2023-02-17T04:23:53;1.80;;;1.20;;
44078;SDS011;29744;49.078;12.878;2023-02-17T04:28:54;2.85;;;1.40;;
44078;SDS011;29744;49.078;12.878;2023-02-17T04:33:54;2.10;;;1.23;;
44078;SDS011;29744;49.078;12.878;2023-02-17T04:38:54;2.26;;;1.38;;
44078;SDS011;29744;49.078;12.878;2023-02-17T04:43:55;1.90;;;1.17;;
44078;SDS011;29744;49.078;12.878;2023-02-17T04:48:55;1.67;;;1.20;;
44078;SDS011;29744;49.078;12.878;2023-02-17T04:53:55;2.10;;;1.10;;
44078;SDS011;29744;49.078;12.878;2023-02-17T04:58:55;2.13;;;1.10;;
44078;SDS011;29744;49.078;12.878;2023-02-17T05:03:56;1.55;;;1.00;;
44078;SDS011;29744;49.078;12.878;2023-02-17T05:08:56;1.75;;;1.08;;
44078;SDS011;29744;49.078;12.878;2023-02-17T05:13:56;2.08;;;1.33;;
44078;SDS011;29744;49.078;12.878;2023-02-17T05:18:57;2.13;;;1.25;;
44078;SDS011;29744;49.078;12.878;2023-02-17T05:23:57;1.55;;;1.13;;
44078;SDS011;29744;49.078;12.878;2023-02-17T05:28:57;2.00;;;1.20;;
44078;SDS011;29744;49.078;12.878;2023-02-17T05:33:58;1.83;;;1.20;;
44078;SDS011;29744;49.078;12.878;2023-02-17T05:38:58;2.08;;;1.05;;
44078;SDS011;29744;49.078;12.878;2023-02-17T05:43:58;1.73;;;1.00;;
44078;SDS011;29744;49.078;12.878;2023-02-17T05:48:59;1.35;;;0.98;;
44078;SDS011;29744;49.078;12.878;2023-02-17T05:53:59;1.52;;;1.00;;
44078;SDS011;29744;49.078;12.878;2023-02-17T05:58:59;1.52;;;0.90;;
44078;SDS011;29744;49.078;12.878;2023-02-17T06:04:00;1.77;;;1.10;;
44078;SDS011;29744;49.078;12.878;2023-02-17T06:09:00;1.70;;;1.10;;
44078;SDS011;29744;49.078;12.878;2023-02-17T06:14:00;1.48;;;0.98;;
44078;SDS011;29744;49.078;12.878;2023-02-17T06:19:00;1.75;;;1.10;;
44078;SDS011;29744;49.078;12.878;2023-02-17T06:24:01;1.95;;;1.10;;
44078;SDS011;29744;49.078;12.878;2023-02-17T06:29:02;1.45;;;0.90;;
44078;SDS011;29744;49.078;12.878;2023-02-17T06:34:02;1.33;;;0.90;;
44078;SDS011;29744;49.078;12.878;2023-02-17T06:39:02;1.67;;;1.10;;
44078;SDS011;29744;49.078;12.878;2023-02-17T06:44:03;1.50;;;1.02;;
44078;SDS011;29744;49.078;12.878;2023-02-17T06:49:03;1.55;;;1.00;;
44078;SDS011;29744;49.078;12.878;2023-02-17T06:54:04;1.60;;;1.00;;
44078;SDS011;29744;49.078;12.878;2023-02-17T06:59:04;1.75;;;1.00;;
44078;SDS011;29744;49.078;12.878;2023-02-17T07:04:04;1.40;;;1.00;;
44078;SDS011;29744;49.078;12.878;2023-02-17T07:09:05;1.15;;;0.88;;
44078;SDS011;29744;49.078;12.878;2023-02-17T07:14:05;1.38;;;0.90;;
44078;SDS011;29744;49.078;12.878;2023-02-17T07:19:05;2.38;;;1.10;;
44078;SDS011;29744;49.078;12.878;2023-02-17T07:24:06;1.48;;;0.93;;
44078;SDS011;29744;49.078;12.878;2023-02-17T07:29:06;1.63;;;0.98;;
44078;SDS011;29744;49.078;12.878;2023-02-17T07:34:07;1.83;;;1.10;;
44078;SDS011;29744;49.078;12.878;2023-02-17T07:39:07;1.83;;;1.10;;
44078;SDS011;29744;49.078;12.878;2023-02-17T07:44:08;1.70;;;1.02;;
44078;SDS011;29744;49.078;12.878;2023-02-17T07:49:09;1.10;;;0.77;;
44078;SDS011;29744;49.078;12.878;2023-02-17T07:54:09;1.50;;;1.00;;
44078;SDS011;29744;49.078;12.878;2023-02-17T07:59:12;1.70;;;0.95;;
44078;SDS011;29744;49.078;12.878;2023-02-17T08:04:14;1.63;;;1.10;;
44078;SDS011;29744;49.078;12.878;2023-02-17T08:09:15;1.50;;;0.98;;
44078;SDS011;29744;49.078;12.878;2023-02-17T08:14:33;2.20;;;1.15;;
44078;SDS011;29744;49.078;12.878;2023-02-17T08:19:33;1.58;;;1.00;;
44078;SDS011;29744;49.078;12.878;2023-02-17T08:24:34;1.23;;;0.90;;
44078;SDS011;29744;49.078;12.878;2023-02-17T08:29:34;1.35;;;1.00;;
44078;SDS011;29744;49.078;12.878;2023-02-17T08:34:34;1.85;;;1.00;;
44078;SDS011;29744;49.078;12.878;2023-02-17T08:39:35;1.30;;;0.90;;
44078;SDS011;29744;49.078;12.878;2023-02-17T08:44:36;1.30;;;0.90;;
44078;SDS011;29744;49.078;12.878;2023-02-17T08:49:36;1.52;;;1.00;;
44078;SDS011;29744;49.078;12.878;2023-02-17T08:54:37;1.30;;;0.77;;
44078;SDS011;29744;49.078;12.878;2023-02-17T08:59:37;1.77;;;0.90;;
44078;SDS011;29744;49.078;12.878;2023-02-17T09:04:37;1.45;;;0.80;;
44078;SDS011;29744;49.078;12.878;2023-02-17T09:09:38;1.30;;;0.82;;
44078;SDS011;29744;49.078;12.878;2023-02-17T09:14:38;1.30;;;0.90;;
44078;SDS011;29744;49.078;12.878;2023-02-17T09:19:39;1.75;;;0.98;;
44078;SDS011;29744;49.078;12.878;2023-02-17T09:24:39;1.25;;;0.82;;
44078;SDS011;29744;49.078;12.878;2023-02-17T09:29:40;1.42;;;0.80;;
44078;SDS011;29744;49.078;12.878;2023-02-17T09:34:40;1.55;;;0.90;;
44078;SDS011;29744;49.078;12.878;2023-02-17T09:39:47;1.25;;;0.80;;
44078;SDS011;29744;49.078;12.878;2023-02-17T09:44:52;0.98;;;0.82;;
44078;SDS011;29744;49.078;12.878;2023-02-17T09:50:06;1.83;;;0.95;;
44078;SDS011;29744;49.078;12.878;2023-02-17T10:00:32;1.35;;;0.98;;
44078;SDS011;29744;49.078;12.878;2023-02-17T10:05:39;1.42;;;0.80;;
44078;SDS011;29744;49.078;12.878;2023-02-17T10:10:56;1.50;;;0.80;;
44078;SDS011;29744;49.078;12.878;2023-02-17T10:16:03;1.70;;;0.90;;
44078;SDS011;29744;49.078;12.878;2023-02-17T10:21:06;1.15;;;0.90;;
44078;SDS011;29744;49.078;12.878;2023-02-17T10:37:00;1.48;;;0.82;;
44078;SDS011;29744;49.078;12.878;2023-02-17T10:42:02;1.83;;;0.90;;
44078;SDS011;29744;49.078;12.878;2023-02-17T10:47:04;1.15;;;0.85;;
44078;SDS011;29744;49.078;12.878;2023-02-17T10:57:18;1.33;;;0.90;;
44078;SDS011;29744;49.078;12.878;2023-02-17T11:02:20;1.33;;;0.90;;
44078;SDS011;29744;49.078;12.878;2023-02-17T11:07:33;1.30;;;0.80;;
44078;SDS011;29744;49.078;12.878;2023-02-17T11:12:39;1.08;;;0.73;;
44078;SDS011;29744;49.078;12.878;2023-02-17T11:17:40;1.75;;;0.88;;
44078;SDS011;29744;49.078;12.878;2023-02-17T11:22:42;1.33;;;0.75;;
44078;SDS011;29744;49.078;12.878;2023-02-17T11:27:51;1.77;;;0.93;;
44078;SDS011;29744;49.078;12.878;2023-02-17T11:32:52;1.42;;;0.85;;
44078;SDS011;29744;49.078;12.878;2023-02-17T11:38:01;1.70;;;0.98;;
44078;SDS011;29744;49.078;12.878;2023-02-17T11:43:03;1.40;;;0.80;;
44078;SDS011;29744;49.078;12.878;2023-02-17T11:48:26;1.10;;;0.70;;
44078;SDS011;29744;49.078;12.878;2023-02-17T12:35:22;1.30;;;0.80;;
44078;SDS011;29744;49.078;12.878;2023-02-17T12:45:41;0.75;;;0.60;;
44078;SDS011;29744;49.078;12.878;2023-02-17T12:50:53;1.15;;;0.80;;
44078;SDS011;29744;49.078;12.878;2023-02-17T12:56:00;1.08;;;0.75;;
44078;SDS011;29744;49.078;12.878;2023-02-17T13:01:04;0.65;;;0.60;;
44078;SDS011;29744;49.078;12.878;2023-02-17T13:06:26;1.13;;;0.70;;
44078;SDS011;29744;49.078;12.878;2023-02-17T13:11:34;1.00;;;0.70;;
44078;SDS011;29744;49.078;12.878;2023-02-17T13:16:44;1.48;;;0.80;;
44078;SDS011;29744;49.078;12.878;2023-02-17T13:21:52;0.82;;;0.63;;
44078;SDS011;29744;49.078;12.878;2023-02-17T13:26:53;1.23;;;0.80;;
44078;SDS011;29744;49.078;12.878;2023-02-17T13:31:54;1.17;;;0.70;;
44078;SDS011;29744;49.078;12.878;2023-02-17T13:42:28;0.95;;;0.70;;
44078;SDS011;29744;49.078;12.878;2023-02-17T13:47:34;1.20;;;0.70;;
44078;SDS011;29744;49.078;12.878;2023-02-17T13:52:35;1.30;;;0.60;;
44078;SDS011;29744;49.078;12.878;2023-02-17T13:57:36;1.06;;;0.80;;
44078;SDS011;29744;49.078;12.878;2023-02-17T14:02:37;1.20;;;0.80;;
44078;SDS011;29744;49.078;12.878;2023-02-17T14:07:46;0.80;;;0.65;;
44078;SDS011;29744;49.078;12.878;2023-02-17T14:12:47;1.10;;;0.70;;
44078;SDS011;29744;49.078;12.878;2023-02-17T14:17:48;1.10;;;0.73;;
44078;SDS011;29744;49.078;12.878;2023-02-17T14:22:57;1.00;;;0.70;;
44078;SDS011;29744;49.078;12.878;2023-02-17T14:27:59;1.02;;;0.68;;
44078;SDS011;29744;49.078;12.878;2023-02-17T14:33:21;4.45;;;0.90;;
44078;SDS011;29744;49.078;12.878;2023-02-17T14:38:26;4.40;;;2.75;;
44078;SDS011;29744;49.078;12.878;2023-02-17T14:43:36;4.63;;;2.78;;
44078;SDS011;29744;49.078;12.878;2023-02-17T14:48:36;5.28;;;2.95;;
44078;SDS011;29744;49.078;12.878;2023-02-17T14:53:37;5.93;;;2.50;;
44078;SDS011;29744;49.078;12.878;2023-02-17T14:58:39;6.30;;;2.97;;
44078;SDS011;29744;49.078;12.878;2023-02-17T15:03:39;5.35;;;2.40;;
44078;SDS011;29744;49.078;12.878;2023-02-17T15:08:40;4.54;;;2.44;;
44078;SDS011;29744;49.078;12.878;2023-02-17T15:13:42;4.45;;;2.50;;
44078;SDS011;29744;49.078;12.878;2023-02-17T15:18:43;3.88;;;2.58;;
44078;SDS011;29744;49.078;12.878;2023-02-17T15:23:43;3.40;;;2.33;;
44078;SDS011;29744;49.078;12.878;2023-02-17T15:28:43;3.75;;;2.10;;
44078;SDS011;29744;49.078;12.878;2023-02-17T15:33:44;4.44;;;2.42;;
44078;SDS011;29744;49.078;12.878;2023-02-17T15:38:44;4.25;;;2.42;;
44078;SDS011;29744;49.078;12.878;2023-02-17T15:43:44;4.43;;;2.30;;
44078;SDS011;29744;49.078;12.878;2023-02-17T15:48:47;2.88;;;1.90;;
44078;SDS011;29744;49.078;12.878;2023-02-17T15:53:49;3.42;;;2.10;;
44078;SDS011;29744;49.078;12.878;2023-02-17T15:58:49;3.50;;;2.10;;
44078;SDS011;29744;49.078;12.878;2023-02-17T16:03:52;4.13;;;2.00;;
44078;SDS011;29744;49.078;12.878;2023-02-17T16:08:53;3.00;;;1.60;;
44078;SDS011;29744;49.078;12.878;2023-02-17T16:13:54;3.22;;;1.90;;
44078;SDS011;29744;49.078;12.878;2023-02-17T16:18:54;3.17;;;1.88;;
44078;SDS011;29744;49.078;12.878;2023-02-17T16:23:55;3.45;;;2.00;;
44078;SDS011;29744;49.078;12.878;2023-02-17T16:28:59;2.95;;;1.80;;
44078;SDS011;29744;49.078;12.878;2023-02-17T16:34:00;3.80;;;2.05;;
44078;SDS011;29744;49.078;12.878;2023-02-17T16:39:10;2.88;;;1.75;;
44078;SDS011;29744;49.078;12.878;2023-02-17T16:44:16;2.97;;;1.85;;
44078;SDS011;29744;49.078;12.878;2023-02-17T16:49:21;3.28;;;2.00;;
44078;SDS011;29744;49.078;12.878;2023-02-17T16:54:27;3.38;;;1.98;;
44078;SDS011;29744;49.078;12.878;2023-02-17T16:59:27;3.33;;;1.75;;
44078;SDS011;29744;49.078;12.878;2023-02-17T17:04:28;10.13;;;2.42;;
44078;SDS011;29744;49.078;12.878;2023-02-17T17:09:28;3.53;;;1.80;;
44078;SDS011;29744;49.078;12.878;2023-02-17T17:14:29;5.93;;;2.10;;
44078;SDS011;29744;49.078;12.878;2023-02-17T17:19:29;8.70;;;1.88;;
44078;SDS011;29744;49.078;12.878;2023-02-17T17:24:30;2.75;;;1.60;;
44078;SDS011;29744;49.078;12.878;2023-02-17T17:29:30;4.00;;;1.58;;
44078;SDS011;29744;49.078;12.878;2023-02-17T17:34:30;3.63;;;1.70;;
44078;SDS011;29744;49.078;12.878;2023-02-17T17:39:30;2.83;;;1.50;;
44078;SDS011;29744;49.078;12.878;2023-02-17T17:44:31;3.33;;;1.60;;
44078;SDS011;29744;49.078;12.878;2023-02-17T17:49:32;3.75;;;1.70;;
44078;SDS011;29744;49.078;12.878;2023-02-17T17:54:32;3.30;;;1.67;;
44078;SDS011;29744;49.078;12.878;2023-02-17T17:59:32;3.13;;;1.58;;
44078;SDS011;29744;49.078;12.878;2023-02-17T18:04:33;2.60;;;1.30;;
44078;SDS011;29744;49.078;12.878;2023-02-17T18:09:34;2.35;;;1.30;;
44078;SDS011;29744;49.078;12.878;2023-02-17T18:14:36;2.25;;;1.42;;
44078;SDS011;29744;49.078;12.878;2023-02-17T18:19:38;2.22;;;1.38;;
44078;SDS011;29744;49.078;12.878;2023-02-17T18:24:40;3.05;;;1.40;;
44078;SDS011;29744;49.078;12.878;2023-02-17T18:29:40;2.72;;;1.30;;
44078;SDS011;29744;49.078;12.878;2023-02-17T18:34:41;2.50;;;1.38;;
44078;SDS011;29744;49.078;12.878;2023-02-17T18:39:41;2.92;;;1.50;;
44078;SDS011;29744;49.078;12.878;2023-02-17T18:44:42;2.13;;;1.17;;
44078;SDS011;29744;49.078;12.878;2023-02-17T18:49:42;2.30;;;1.25;;
44078;SDS011;29744;49.078;12.878;2023-02-17T18:54:43;1.88;;;1.23;;
44078;SDS011;29744;49.078;12.878;2023-02-17T18:59:44;2.65;;;1.48;;
44078;SDS011;29744;49.078;12.878;2023-02-17T19:04:44;1.92;;;1.20;;
44078;SDS011;29744;49.078;12.878;2023-02-17T19:09:44;2.50;;;1.20;;
44078;SDS011;29744;49.078;12.878;2023-02-17T19:14:45;2.33;;;1.27;;
44078;SDS011;29744;49.078;12.878;2023-02-17T19:19:47;3.47;;;1.25;;
44078;SDS011;29744;49.078;12.878;2023-02-17T19:24:51;2.22;;;1.23;;
44078;SDS011;29744;49.078;12.878;2023-02-17T19:29:52;2.58;;;1.13;;
44078;SDS011;29744;49.078;12.878;2023-02-17T19:34:53;1.85;;;1.00;;
44078;SDS011;29744;49.078;12.878;2023-02-17T19:39:53;3.00;;;1.27;;
44078;SDS011;29744;49.078;12.878;2023-02-17T19:44:53;2.30;;;1.23;;
44078;SDS011;29744;49.078;12.878;2023-02-17T19:49:54;1.60;;;1.10;;
44078;SDS011;29744;49.078;12.878;2023-02-17T19:54:54;3.35;;;1.13;;
44078;SDS011;29744;49.078;12.878;2023-02-17T19:59:54;1.73;;;1.02;;
44078;SDS011;29744;49.078;12.878;2023-02-17T20:04:55;1.92;;;1.02;;
44078;SDS011;29744;49.078;12.878;2023-02-17T20:09:55;1.63;;;1.00;;
44078;SDS011;29744;49.078;12.878;2023-02-17T20:14:55;1.75;;;1.08;;
44078;SDS011;29744;49.078;12.878;2023-02-17T20:19:56;1.88;;;1.20;;
44078;SDS011;29744;49.078;12.878;2023-02-17T20:24:56;2.20;;;1.20;;
44078;SDS011;29744;49.078;12.878;2023-02-17T20:29:57;1.63;;;1.00;;
44078;SDS011;29744;49.078;12.878;2023-02-17T20:34:58;1.92;;;1.20;;
44078;SDS011;29744;49.078;12.878;2023-02-17T20:39:58;1.50;;;0.85;;
44078;SDS011;29744;49.078;12.878;2023-02-17T20:44:59;1.63;;;1.02;;
44078;SDS011;29744;49.078;12.878;2023-02-17T20:49:59;1.95;;;1.00;;
44078;SDS011;29744;49.078;12.878;2023-02-17T20:54:59;2.15;;;1.10;;
44078;SDS011;29744;49.078;12.878;2023-02-17T21:00:00;2.70;;;1.15;;
44078;SDS011;29744;49.078;12.878;2023-02-17T21:05:00;1.20;;;0.85;;
44078;SDS011;29744;49.078;12.878;2023-02-17T21:10:00;1.27;;;0.90;;
44078;SDS011;29744;49.078;12.878;2023-02-17T21:15:01;2.03;;;1.02;;
44078;SDS011;29744;49.078;12.878;2023-02-17T21:20:01;1.48;;;0.90;;
44078;SDS011;29744;49.078;12.878;2023-02-17T21:25:02;1.67;;;0.88;;
44078;SDS011;29744;49.078;12.878;2023-02-17T21:30:04;1.52;;;1.00;;
44078;SDS011;29744;49.078;12.878;2023-02-17T21:35:07;0.80;;;0.70;;
44078;SDS011;29744;49.078;12.878;2023-02-17T21:40:09;0.90;;;0.70;;
44078;SDS011;29744;49.078;12.878;2023-02-17T21:45:09;1.30;;;0.70;;
44078;SDS011;29744;49.078;12.878;2023-02-17T21:50:10;2.03;;;1.20;;
44078;SDS011;29744;49.078;12.878;2023-02-17T21:55:10;1.95;;;0.80;;
44078;SDS011;29744;49.078;12.878;2023-02-17T22:00:11;1.92;;;0.90;;
44078;SDS011;29744;49.078;12.878;2023-02-17T22:05:12;1.50;;;0.90;;
44078;SDS011;29744;49.078;12.878;2023-02-17T22:10:12;1.45;;;0.85;;
44078;SDS011;29744;49.078;12.878;2023-02-17T22:15:12;1.10;;;0.80;;
44078;SDS011;29744;49.078;12.878;2023-02-17T22:20:15;1.63;;;0.90;;
44078;SDS011;29744;49.078;12.878;2023-02-17T22:25:15;1.50;;;0.70;;
44078;SDS011;29744;49.078;12.878;2023-02-17T22:30:16;1.27;;;0.75;;
44078;SDS011;29744;49.078;12.878;2023-02-17T22:35:16;1.05;;;0.88;;
44078;SDS011;29744;49.078;12.878;2023-02-17T22:40:19;0.68;;;0.68;;
44078;SDS011;29744;49.078;12.878;2023-02-17T22:45:20;1.55;;;0.80;;
44078;SDS011;29744;49.078;12.878;2023-02-17T22:50:20;1.73;;;1.00;;
44078;SDS011;29744;49.078;12.878;2023-02-17T22:55:20;1.63;;;0.90;;
44078;SDS011;29744;49.078;12.878;2023-02-17T23:00:20;0.93;;;0.77;;
44078;SDS011;29744;49.078;12.878;2023-02-17T23:05:21;1.55;;;0.90;;
44078;SDS011;29744;49.078;12.878;2023-02-17T23:10:21;0.98;;;0.68;;
44078;SDS011;29744;49.078;12.878;2023-02-17T23:15:21;1.38;;;0.98;;
44078;SDS011;29744;49.078;12.878;2023-02-17T23:20:39;1.15;;;0.70;;
44078;SDS011;29744;49.078;12.878;2023-02-17T23:25:41;1.20;;;0.80;;
44078;SDS011;29744;49.078;12.878;2023-02-17T23:30:47;1.27;;;0.90;;
44078;SDS011;29744;49.078;12.878;2023-02-17T23:35:48;1.33;;;0.80;;
44078;SDS011;29744;49.078;12.878;2023-02-17T23:40:50;1.13;;;0.60;;
44078;SDS011;29744;49.078;12.878;2023-02-17T23:45:55;1.23;;;0.65;;
44078;SDS011;29744;49.078;12.878;2023-02-17T23:51:00;1.08;;;0.70;;
44078;SDS011;29744;49.078;12.878;2023-02-17T23:56:06;1.33;;;0.80;;
